createdAt,value
2018-11-23T00:02:13.551Z,21.35
2018-11-23T00:07:16.076Z,21.37
2018-11-23T00:12:18.641Z,21.36
2018-11-23T00:17:21.155Z,21.36
2018-11-23T00:22:23.678Z,21.33
2018-11-23T00:27:26.214Z,21.34
2018-11-23T00:32:28.734Z,21.34
2018-11-23T00:37:31.271Z,21.33
2018-11-23T00:42:33.821Z,21.34
2018-11-23T00:47:36.361Z,21.34
2018-11-23T00:52:39.187Z,21.33
2018-11-23T00:57:41.755Z,21.33
2018-11-23T01:02:44.679Z,21.32
2018-11-23T01:07:47.783Z,21.30
2018-11-23T01:12:51.339Z,21.28
2018-11-23T01:17:53.914Z,21.28
2018-11-23T01:22:57.109Z,21.24
2018-11-23T01:27:59.678Z,21.21
2018-11-23T01:33:02.207Z,21.20
2018-11-23T01:38:04.741Z,21.17
2018-11-23T01:43:07.268Z,21.12
2018-11-23T01:48:09.783Z,21.14
2018-11-23T01:53:12.300Z,21.10
2018-11-23T01:58:14.861Z,21.08
2018-11-23T02:03:17.385Z,21.03
2018-11-23T02:08:19.925Z,21.03
2018-11-23T02:13:22.514Z,20.97
2018-11-23T02:18:25.018Z,20.96
2018-11-23T02:23:27.518Z,21.05
2018-11-23T02:28:30.042Z,21.03
2018-11-23T02:33:32.545Z,21.02
2018-11-23T02:38:35.091Z,21.03
2018-11-23T02:43:37.602Z,21.02
2018-11-23T02:48:40.125Z,21.02
2018-11-23T02:53:42.631Z,21.00
2018-11-23T02:58:45.359Z,21.07
2018-11-23T03:03:47.893Z,21.01
2018-11-23T03:08:50.491Z,20.99
2018-11-23T03:13:53.168Z,21.00
2018-11-23T03:18:55.750Z,21.02
2018-11-23T03:23:58.798Z,21.06
2018-11-23T03:29:03.530Z,21.08
2018-11-23T03:34:06.071Z,21.10
2018-11-23T03:39:08.823Z,21.13
2018-11-23T03:44:11.440Z,21.14
2018-11-23T03:49:13.968Z,21.14
2018-11-23T03:54:16.494Z,21.13
2018-11-23T03:59:19.086Z,21.10
2018-11-23T04:04:21.648Z,21.07
2018-11-23T04:09:24.215Z,21.06
2018-11-23T04:14:26.727Z,21.02
2018-11-23T04:19:29.231Z,21.02
2018-11-23T04:24:31.967Z,20.99
2018-11-23T04:29:34.535Z,20.98
2018-11-23T04:34:37.064Z,20.96
2018-11-23T04:39:39.602Z,20.94
2018-11-23T04:44:42.115Z,20.82
2018-11-23T04:49:44.655Z,20.92
2018-11-23T04:54:47.199Z,20.88
2018-11-23T04:59:49.712Z,20.80
2018-11-23T05:04:52.279Z,20.69
2018-11-23T05:09:54.799Z,20.68
2018-11-23T05:14:57.331Z,20.65
2018-11-23T05:19:59.860Z,20.63
2018-11-23T05:25:02.461Z,20.61
2018-11-23T05:30:07.237Z,20.58
2018-11-23T05:35:10.720Z,20.57
2018-11-23T05:40:14.830Z,20.55
2018-11-23T05:45:18.686Z,20.54
2018-11-23T05:50:22.905Z,20.53
2018-11-23T05:55:25.459Z,20.51
2018-11-23T06:00:29.917Z,20.49
2018-11-23T06:05:32.458Z,20.47
2018-11-23T06:10:35.001Z,20.46
2018-11-23T06:15:40.465Z,20.46
2018-11-23T06:20:40.145Z,20.44
2018-11-23T06:25:44.103Z,20.42
2018-11-23T06:30:46.982Z,20.41
2018-11-23T06:35:50.202Z,20.40
2018-11-23T06:40:52.950Z,20.39
2018-11-23T06:45:56.767Z,20.37
2018-11-23T06:50:59.356Z,20.33
2018-11-23T06:56:02.456Z,20.32
2018-11-23T07:01:05.092Z,20.30
2018-11-23T07:06:07.629Z,20.29
2018-11-23T07:11:10.181Z,20.28
2018-11-23T07:16:12.699Z,20.26
2018-11-23T07:21:21.202Z,20.25
2018-11-23T07:26:17.795Z,20.21
2018-11-23T07:31:20.362Z,20.22
2018-11-23T07:36:23.157Z,20.19
2018-11-23T07:41:31.276Z,17.51
2018-11-23T07:46:33.782Z,15.21
2018-11-23T07:51:39.204Z,14.66
2018-11-23T07:56:38.973Z,14.33
2018-11-23T08:01:41.490Z,13.83
2018-11-23T08:06:43.999Z,13.60
2018-11-23T08:11:46.555Z,13.55
2018-11-23T08:16:49.066Z,13.64
2018-11-23T08:21:51.574Z,14.29
2018-11-23T08:26:54.367Z,17.09
2018-11-23T08:31:56.893Z,18.50
2018-11-23T08:36:59.423Z,19.57
2018-11-23T08:42:01.944Z,19.89
2018-11-23T08:47:04.512Z,20.19
2018-11-23T08:52:07.161Z,20.67
2018-11-23T08:57:09.703Z,20.41
2018-11-23T09:02:12.254Z,20.26
2018-11-23T09:07:14.854Z,20.21
2018-11-23T09:12:17.381Z,20.18
2018-11-23T09:17:19.916Z,20.15
2018-11-23T09:22:23.565Z,20.04
2018-11-23T09:27:25.104Z,20.01
2018-11-23T09:32:27.657Z,19.92
2018-11-23T09:37:30.166Z,20.05
2018-11-23T09:42:32.680Z,20.10
2018-11-23T09:47:35.224Z,20.13
2018-11-23T09:52:37.742Z,20.10
2018-11-23T09:57:40.555Z,20.15
2018-11-23T10:02:43.560Z,20.19
2018-11-23T10:07:47.372Z,20.25
2018-11-23T10:12:49.911Z,20.22
2018-11-23T10:17:52.444Z,20.05
2018-11-23T10:22:55.138Z,20.11
2018-11-23T10:27:57.812Z,20.22
2018-11-23T10:33:01.686Z,20.28
2018-11-23T10:38:05.191Z,20.28
2018-11-23T10:43:07.762Z,17.04
2018-11-23T10:48:10.352Z,16.86
2018-11-23T10:53:14.403Z,18.76
2018-11-23T10:58:16.972Z,19.39
2018-11-23T11:03:34.114Z,19.68
2018-11-23T11:08:36.732Z,19.99
2018-11-23T11:13:39.257Z,20.16
2018-11-23T11:18:41.791Z,20.30
2018-11-23T11:23:44.305Z,19.51
2018-11-23T11:28:46.830Z,19.98
2018-11-23T11:33:49.375Z,20.02
2018-11-23T11:38:51.884Z,20.10
2018-11-23T11:43:54.401Z,20.17
2018-11-23T11:48:56.941Z,20.15
2018-11-23T11:53:59.479Z,20.14
2018-11-23T11:59:02.027Z,20.16
2018-11-23T12:04:04.619Z,20.17
2018-11-23T12:15:09.484Z,20.16
2018-11-23T12:20:13.727Z,20.16
2018-11-23T12:25:16.462Z,20.17
2018-11-23T12:30:20.140Z,20.24
2018-11-23T12:35:23.210Z,20.23
2018-11-23T12:40:26.231Z,20.24
2018-11-23T12:45:28.786Z,20.23
2018-11-23T12:50:31.385Z,20.24
2018-11-23T12:55:33.959Z,20.23
2018-11-23T13:00:36.523Z,20.25
2018-11-23T13:05:39.066Z,20.31
2018-11-23T13:10:41.619Z,20.32
2018-11-23T13:15:44.199Z,20.25
2018-11-23T13:20:46.807Z,20.24
2018-11-23T13:25:49.418Z,20.28
2018-11-23T13:30:51.980Z,20.29
2018-11-23T13:35:54.552Z,20.31
2018-11-23T13:40:57.096Z,20.28
2018-11-23T13:45:59.673Z,20.31
2018-11-23T13:51:02.218Z,20.29
2018-11-23T13:56:05.610Z,20.27
2018-11-23T14:01:08.162Z,20.28
2018-11-23T14:06:10.701Z,20.19
2018-11-23T14:11:13.255Z,20.19
2018-11-23T14:16:15.800Z,20.24
2018-11-23T14:21:18.340Z,20.22
2018-11-23T14:26:20.946Z,20.25
2018-11-23T14:31:23.589Z,20.23
2018-11-23T14:36:26.146Z,20.21
2018-11-23T14:41:28.695Z,20.25
2018-11-23T14:46:31.243Z,20.18
2018-11-23T14:51:33.873Z,20.16
2018-11-23T14:56:36.511Z,20.16
2018-11-23T15:01:39.082Z,20.18
2018-11-23T15:06:41.878Z,20.21
2018-11-23T15:11:44.840Z,20.24
2018-11-23T15:16:47.758Z,20.28
2018-11-23T15:21:50.456Z,20.32
2018-11-23T15:26:53.118Z,20.34
2018-11-23T15:31:55.708Z,20.38
2018-11-23T15:36:58.312Z,20.43
2018-11-23T15:42:00.865Z,20.41
2018-11-23T15:47:03.447Z,20.43
2018-11-23T15:52:05.971Z,20.46
2018-11-23T15:57:08.651Z,20.45
2018-11-23T16:02:11.187Z,20.46
2018-11-23T16:07:13.814Z,20.48
2018-11-23T16:12:16.645Z,20.49
2018-11-23T16:17:19.247Z,20.51
2018-11-23T16:22:21.851Z,20.50
2018-11-23T16:27:24.457Z,20.51
2018-11-23T16:32:27.070Z,20.51
2018-11-23T16:37:29.759Z,20.56
2018-11-23T16:47:41.360Z,20.66
2018-11-23T16:52:45.463Z,20.64
2018-11-23T16:58:05.005Z,20.67
2018-11-23T17:03:08.974Z,20.69
2018-11-23T17:08:11.683Z,21.13
2018-11-23T17:13:14.438Z,21.53
2018-11-23T17:18:17.041Z,21.82
2018-11-23T17:23:19.571Z,21.89
2018-11-23T17:28:22.083Z,21.97
2018-11-23T17:33:24.694Z,22.06
2018-11-23T17:38:27.220Z,22.02
2018-11-23T17:43:29.763Z,22.11
2018-11-23T17:48:32.381Z,21.84
2018-11-23T17:53:34.944Z,21.91
2018-11-23T17:58:37.487Z,22.00
2018-11-23T18:03:40.045Z,21.95
2018-11-23T18:08:42.619Z,22.16
2018-11-23T18:13:45.206Z,21.87
2018-11-23T18:18:47.736Z,21.90
2018-11-23T18:23:50.315Z,21.87
2018-11-23T18:28:52.844Z,21.94
2018-11-23T18:33:55.527Z,21.79
2018-11-23T18:38:58.215Z,21.78
2018-11-23T18:44:01.036Z,21.82
2018-11-23T18:49:03.983Z,22.13
2018-11-23T18:54:06.529Z,22.17
2018-11-23T18:59:09.056Z,22.13
2018-11-23T19:04:11.627Z,22.06
2018-11-23T19:09:14.230Z,22.00
2018-11-23T19:14:17.106Z,21.92
2018-11-23T19:19:19.659Z,21.90
2018-11-23T19:24:22.869Z,21.92
2018-11-23T19:29:25.583Z,22.08
2018-11-23T19:34:28.124Z,22.12
2018-11-23T19:39:30.714Z,22.13
2018-11-23T19:44:33.264Z,22.09
2018-11-23T19:49:35.934Z,22.17
2018-11-23T19:54:38.517Z,22.00
2018-11-23T19:59:41.102Z,21.98
2018-11-23T20:04:43.649Z,21.90
2018-11-23T20:09:46.193Z,21.90
2018-11-23T20:14:48.735Z,21.85
2018-11-23T20:19:51.302Z,21.79
2018-11-23T20:24:53.841Z,21.68
2018-11-23T20:29:56.402Z,21.67
2018-11-23T20:34:59.224Z,21.63
2018-11-23T20:40:01.799Z,21.55
2018-11-23T20:45:05.920Z,21.48
2018-11-23T20:50:09.164Z,21.44
2018-11-23T20:55:12.228Z,21.41
2018-11-23T21:00:15.310Z,21.34
2018-11-23T21:05:18.319Z,21.34
2018-11-23T21:10:21.617Z,21.30
2018-11-23T21:15:24.778Z,21.34
2018-11-23T21:20:27.354Z,21.37
2018-11-23T21:25:30.002Z,21.30
2018-11-23T21:30:32.569Z,21.26
2018-11-23T21:35:35.673Z,21.24
2018-11-23T21:40:40.725Z,21.24
2018-11-23T21:45:40.937Z,21.24
2018-11-23T21:50:43.479Z,21.23
2018-11-23T21:55:46.073Z,21.25
2018-11-23T22:00:48.638Z,21.26
2018-11-23T22:06:13.046Z,21.24
2018-11-23T22:11:15.635Z,21.19
2018-11-23T22:16:18.224Z,21.17
2018-11-23T22:21:25.096Z,21.20
2018-11-23T22:26:28.669Z,21.19
2018-11-23T22:31:31.227Z,21.22
2018-11-23T22:36:33.786Z,21.22
2018-11-23T22:41:36.432Z,21.20
2018-11-23T22:46:39.036Z,21.10
2018-11-23T22:51:41.627Z,21.16
2018-11-23T22:56:44.199Z,21.16
2018-11-23T23:06:55.887Z,21.13
2018-11-23T23:11:58.464Z,21.11
2018-11-23T23:17:01.046Z,21.17
2018-11-23T23:22:03.664Z,21.12
2018-11-23T23:27:06.240Z,21.10
2018-11-23T23:32:08.895Z,21.23
2018-11-23T23:37:11.521Z,21.23
2018-11-23T23:42:14.140Z,21.25
2018-11-23T23:47:16.732Z,21.22
2018-11-23T23:52:19.297Z,21.23
2018-11-23T23:57:21.953Z,21.23
